sensor_id;sensor_type;location;lat;lon;timestamp;P1;durP1;ratioP1;P2;durP2;ratioP2
30458;SDS011;17254;50.976;7.034;2023-03-30T00:00:06;6.37;;;3.63;;
30458;SDS011;17254;50.976;7.034;2023-03-30T00:00:22;6.49;;;3.74;;
30458;SDS011;17254;50.976;7.034;2023-03-30T00:00:29;6.50;;;3.64;;
30458;SDS011;17254;50.976;7.034;2023-03-30T00:00:35;6.57;;;3.63;;
30458;SDS011;17254;50.976;7.034;2023-03-30T00:00:41;6.80;;;3.50;;
30458;SDS011;17254;50.976;7.034;2023-03-30T00:00:49;5.97;;;3.40;;
30458;SDS011;17254;50.976;7.034;2023-03-30T00:00:55;6.35;;;3.45;;
30458;SDS011;17254;50.976;7.034;2023-03-30T00:01:01;6.68;;;3.45;;
30458;SDS011;17254;50.976;7.034;2023-03-30T00:01:09;6.45;;;3.63;;
30458;SDS011;17254;50.976;7.034;2023-03-30T00:01:19;6.29;;;3.71;;
30458;SDS011;17254;50.976;7.034;2023-03-30T00:01:25;6.14;;;3.66;;
30458;SDS011;17254;50.976;7.034;2023-03-30T00:01:31;5.70;;;3.60;;
30458;SDS011;17254;50.976;7.034;2023-03-30T00:01:37;5.95;;;3.30;;
30458;SDS011;17254;50.976;7.034;2023-03-30T00:01:43;6.10;;;3.30;;
30458;SDS011;17254;50.976;7.034;2023-03-30T00:01:50;6.30;;;3.40;;
30458;SDS011;17254;50.976;7.034;2023-03-30T00:01:55;6.82;;;3.50;;
30458;SDS011;17254;50.976;7.034;2023-03-30T00:02:02;7.63;;;3.40;;
30458;SDS011;17254;50.976;7.034;2023-03-30T00:02:08;7.87;;;3.53;;
30458;SDS011;17254;50.976;7.034;2023-03-30T00:02:15;8.18;;;3.58;;
30458;SDS011;17254;50.976;7.034;2023-03-30T00:02:22;8.23;;;3.46;;
30458;SDS011;17254;50.976;7.034;2023-03-30T00:02:29;8.17;;;3.60;;
30458;SDS011;17254;50.976;7.034;2023-03-30T00:02:35;8.25;;;3.83;;
30458;SDS011;17254;50.976;7.034;2023-03-30T00:02:43;7.68;;;3.72;;
30458;SDS011;17254;50.976;7.034;2023-03-30T00:02:49;6.83;;;3.70;;
30458;SDS011;17254;50.976;7.034;2023-03-30T00:02:57;7.08;;;3.62;;
30458;SDS011;17254;50.976;7.034;2023-03-30T00:03:07;6.30;;;3.23;;
30458;SDS011;17254;50.976;7.034;2023-03-30T00:03:13;6.73;;;3.30;;
30458;SDS011;17254;50.976;7.034;2023-03-30T00:03:19;7.00;;;3.40;;
30458;SDS011;17254;50.976;7.034;2023-03-30T00:03:26;6.47;;;3.40;;
30458;SDS011;17254;50.976;7.034;2023-03-30T00:03:32;7.40;;;3.60;;
30458;SDS011;17254;50.976;7.034;2023-03-30T00:03:39;7.22;;;3.55;;
30458;SDS011;17254;50.976;7.034;2023-03-30T00:03:47;7.12;;;3.65;;
30458;SDS011;17254;50.976;7.034;2023-03-30T00:03:53;7.34;;;3.56;;
30458;SDS011;17254;50.976;7.034;2023-03-30T00:03:59;6.37;;;3.50;;
30458;SDS011;17254;50.976;7.034;2023-03-30T00:04:06;6.53;;;3.47;;
30458;SDS011;17254;50.976;7.034;2023-03-30T00:04:15;6.47;;;3.35;;
30458;SDS011;17254;50.976;7.034;2023-03-30T00:04:22;6.52;;;3.36;;
30458;SDS011;17254;50.976;7.034;2023-03-30T00:04:31;6.60;;;3.29;;
30458;SDS011;17254;50.976;7.034;2023-03-30T00:04:38;6.56;;;3.22;;
30458;SDS011;17254;50.976;7.034;2023-03-30T00:04:47;6.81;;;3.21;;
30458;SDS011;17254;50.976;7.034;2023-03-30T00:04:53;6.65;;;3.22;;
30458;SDS011;17254;50.976;7.034;2023-03-30T00:04:59;6.32;;;3.28;;
30458;SDS011;17254;50.976;7.034;2023-03-30T00:05:07;6.80;;;3.23;;
30458;SDS011;17254;50.976;7.034;2023-03-30T00:05:14;6.84;;;3.28;;
30458;SDS011;17254;50.976;7.034;2023-03-30T00:05:21;6.76;;;3.38;;
30458;SDS011;17254;50.976;7.034;2023-03-30T00:05:28;6.80;;;3.43;;
30458;SDS011;17254;50.976;7.034;2023-03-30T00:05:34;6.52;;;3.62;;
30458;SDS011;17254;50.976;7.034;2023-03-30T00:05:40;5.80;;;3.53;;
30458;SDS011;17254;50.976;7.034;2023-03-30T00:05:47;5.63;;;3.30;;
30458;SDS011;17254;50.976;7.034;2023-03-30T00:05:54;6.00;;;3.30;;
30458;SDS011;17254;50.976;7.034;2023-03-30T00:06:02;6.33;;;3.40;;
30458;SDS011;17254;50.976;7.034;2023-03-30T00:06:09;6.23;;;3.48;;
30458;SDS011;17254;50.976;7.034;2023-03-30T00:06:16;6.77;;;3.70;;
30458;SDS011;17254;50.976;7.034;2023-03-30T00:06:26;6.64;;;3.70;;
30458;SDS011;17254;50.976;7.034;2023-03-30T00:06:33;6.40;;;3.50;;
30458;SDS011;17254;50.976;7.034;2023-03-30T00:06:39;6.90;;;3.30;;
30458;SDS011;17254;50.976;7.034;2023-03-30T00:06:47;6.77;;;3.18;;
30458;SDS011;17254;50.976;7.034;2023-03-30T00:06:54;6.53;;;3.13;;
30458;SDS011;17254;50.976;7.034;2023-03-30T00:07:00;6.72;;;3.05;;
30458;SDS011;17254;50.976;7.034;2023-03-30T00:07:06;6.65;;;3.25;;
30458;SDS011;17254;50.976;7.034;2023-03-30T00:07:12;6.82;;;3.35;;
30458;SDS011;17254;50.976;7.034;2023-03-30T00:07:19;6.83;;;3.40;;
30458;SDS011;17254;50.976;7.034;2023-03-30T00:07:25;6.68;;;3.30;;
30458;SDS011;17254;50.976;7.034;2023-03-30T00:07:31;6.30;;;3.27;;
30458;SDS011;17254;50.976;7.034;2023-03-30T00:07:38;6.03;;;3.00;;
30458;SDS011;17254;50.976;7.034;2023-03-30T00:07:46;5.35;;;3.00;;
30458;SDS011;17254;50.976;7.034;2023-03-30T00:07:52;4.73;;;3.00;;
30458;SDS011;17254;50.976;7.034;2023-03-30T00:07:59;5.08;;;3.18;;
30458;SDS011;17254;50.976;7.034;2023-03-30T00:08:06;5.16;;;3.26;;
30458;SDS011;17254;50.976;7.034;2023-03-30T00:08:12;5.75;;;3.35;;
30458;SDS011;17254;50.976;7.034;2023-03-30T00:08:18;6.07;;;3.35;;
30458;SDS011;17254;50.976;7.034;2023-03-30T00:08:25;6.10;;;3.43;;
30458;SDS011;17254;50.976;7.034;2023-03-30T00:08:32;6.07;;;3.50;;
30458;SDS011;17254;50.976;7.034;2023-03-30T00:08:38;5.63;;;3.40;;
30458;SDS011;17254;50.976;7.034;2023-03-30T00:08:44;5.30;;;3.50;;
30458;SDS011;17254;50.976;7.034;2023-03-30T00:08:50;5.20;;;3.45;;
30458;SDS011;17254;50.976;7.034;2023-03-30T00:09:01;5.63;;;3.57;;
30458;SDS011;17254;50.976;7.034;2023-03-30T00:09:10;6.50;;;3.70;;
30458;SDS011;17254;50.976;7.034;2023-03-30T00:09:17;6.76;;;3.80;;
30458;SDS011;17254;50.976;7.034;2023-03-30T00:09:23;6.55;;;3.67;;
30458;SDS011;17254;50.976;7.034;2023-03-30T00:09:36;6.19;;;3.72;;
30458;SDS011;17254;50.976;7.034;2023-03-30T00:09:46;6.34;;;3.53;;
30458;SDS011;17254;50.976;7.034;2023-03-30T00:09:52;6.57;;;3.50;;
30458;SDS011;17254;50.976;7.034;2023-03-30T00:09:58;6.23;;;3.23;;
30458;SDS011;17254;50.976;7.034;2023-03-30T00:10:08;5.66;;;3.20;;
30458;SDS011;17254;50.976;7.034;2023-03-30T00:10:15;5.13;;;3.30;;
30458;SDS011;17254;50.976;7.034;2023-03-30T00:10:23;5.20;;;3.40;;
30458;SDS011;17254;50.976;7.034;2023-03-30T00:10:29;5.75;;;3.55;;
30458;SDS011;17254;50.976;7.034;2023-03-30T00:10:35;6.50;;;3.73;;
30458;SDS011;17254;50.976;7.034;2023-03-30T00:10:45;6.50;;;3.75;;
30458;SDS011;17254;50.976;7.034;2023-03-30T00:10:52;6.41;;;3.85;;
30458;SDS011;17254;50.976;7.034;2023-03-30T00:11:05;6.31;;;3.71;;
30458;SDS011;17254;50.976;7.034;2023-03-30T00:11:13;5.77;;;3.60;;
30458;SDS011;17254;50.976;7.034;2023-03-30T00:11:21;5.87;;;3.40;;
30458;SDS011;17254;50.976;7.034;2023-03-30T00:11:27;5.80;;;3.44;;
30458;SDS011;17254;50.976;7.034;2023-03-30T00:11:38;6.24;;;3.55;;
30458;SDS011;17254;50.976;7.034;2023-03-30T00:11:44;6.28;;;3.48;;
30458;SDS011;17254;50.976;7.034;2023-03-30T00:11:52;6.13;;;3.53;;
30458;SDS011;17254;50.976;7.034;2023-03-30T00:11:58;5.46;;;3.34;;
30458;SDS011;17254;50.976;7.034;2023-03-30T00:12:08;6.37;;;3.40;;
30458;SDS011;17254;50.976;7.034;2023-03-30T00:12:14;6.47;;;3.38;;
30458;SDS011;17254;50.976;7.034;2023-03-30T00:12:24;6.63;;;3.33;;
30458;SDS011;17254;50.976;7.034;2023-03-30T00:12:31;7.08;;;3.60;;
30458;SDS011;17254;50.976;7.034;2023-03-30T00:12:38;6.40;;;3.53;;
30458;SDS011;17254;50.976;7.034;2023-03-30T00:12:45;6.62;;;3.68;;
30458;SDS011;17254;50.976;7.034;2023-03-30T00:12:54;6.97;;;3.80;;
30458;SDS011;17254;50.976;7.034;2023-03-30T00:13:00;6.82;;;3.53;;
30458;SDS011;17254;50.976;7.034;2023-03-30T00:13:06;7.17;;;3.43;;
30458;SDS011;17254;50.976;7.034;2023-03-30T00:13:12;6.68;;;3.25;;
30458;SDS011;17254;50.976;7.034;2023-03-30T00:13:19;6.40;;;3.33;;
30458;SDS011;17254;50.976;7.034;2023-03-30T00:13:25;8.03;;;3.30;;
30458;SDS011;17254;50.976;7.034;2023-03-30T00:13:32;7.97;;;3.37;;
30458;SDS011;17254;50.976;7.034;2023-03-30T00:13:40;9.33;;;3.63;;
30458;SDS011;17254;50.976;7.034;2023-03-30T00:13:46;9.50;;;3.70;;
30458;SDS011;17254;50.976;7.034;2023-03-30T00:13:54;8.62;;;3.65;;
30458;SDS011;17254;50.976;7.034;2023-03-30T00:14:00;8.55;;;3.80;;
30458;SDS011;17254;50.976;7.034;2023-03-30T00:14:06;7.88;;;3.78;;
30458;SDS011;17254;50.976;7.034;2023-03-30T00:14:12;7.07;;;3.70;;
30458;SDS011;17254;50.976;7.034;2023-03-30T00:14:21;6.77;;;3.66;;
30458;SDS011;17254;50.976;7.034;2023-03-30T00:14:33;6.51;;;3.64;;
30458;SDS011;17254;50.976;7.034;2023-03-30T00:14:41;6.27;;;3.53;;
30458;SDS011;17254;50.976;7.034;2023-03-30T00:14:47;6.47;;;3.55;;
30458;SDS011;17254;50.976;7.034;2023-03-30T00:14:53;5.90;;;3.47;;
30458;SDS011;17254;50.976;7.034;2023-03-30T00:15:00;5.72;;;3.33;;
30458;SDS011;17254;50.976;7.034;2023-03-30T00:15:07;5.62;;;3.32;;
30458;SDS011;17254;50.976;7.034;2023-03-30T00:15:17;5.50;;;3.30;;
30458;SDS011;17254;50.976;7.034;2023-03-30T00:15:25;5.69;;;3.49;;
30458;SDS011;17254;50.976;7.034;2023-03-30T00:15:32;5.60;;;3.55;;
30458;SDS011;17254;50.976;7.034;2023-03-30T00:15:38;5.60;;;3.58;;
30458;SDS011;17254;50.976;7.034;2023-03-30T00:15:45;5.76;;;3.74;;
30458;SDS011;17254;50.976;7.034;2023-03-30T00:15:51;5.47;;;3.58;;
30458;SDS011;17254;50.976;7.034;2023-03-30T00:15:57;5.05;;;3.60;;
30458;SDS011;17254;50.976;7.034;2023-03-30T00:16:04;5.83;;;3.57;;
30458;SDS011;17254;50.976;7.034;2023-03-30T00:16:13;6.16;;;3.67;;
30458;SDS011;17254;50.976;7.034;2023-03-30T00:16:19;6.97;;;3.72;;
30458;SDS011;17254;50.976;7.034;2023-03-30T00:16:25;7.27;;;3.70;;
30458;SDS011;17254;50.976;7.034;2023-03-30T00:16:32;6.93;;;3.70;;
30458;SDS011;17254;50.976;7.034;2023-03-30T00:16:38;6.70;;;3.60;;
30458;SDS011;17254;50.976;7.034;2023-03-30T00:16:44;6.17;;;3.40;;
30458;SDS011;17254;50.976;7.034;2023-03-30T00:16:51;6.10;;;3.53;;
30458;SDS011;17254;50.976;7.034;2023-03-30T00:16:57;6.28;;;3.50;;
30458;SDS011;17254;50.976;7.034;2023-03-30T00:17:03;6.77;;;3.57;;
30458;SDS011;17254;50.976;7.034;2023-03-30T00:17:09;6.73;;;3.77;;
30458;SDS011;17254;50.976;7.034;2023-03-30T00:17:18;6.73;;;3.87;;
30458;SDS011;17254;50.976;7.034;2023-03-30T00:17:23;6.50;;;3.87;;
30458;SDS011;17254;50.976;7.034;2023-03-30T00:17:30;6.40;;;3.90;;
30458;SDS011;17254;50.976;7.034;2023-03-30T00:17:37;6.20;;;3.73;;
30458;SDS011;17254;50.976;7.034;2023-03-30T00:17:43;6.38;;;3.58;;
30458;SDS011;17254;50.976;7.034;2023-03-30T00:17:49;6.63;;;3.53;;
30458;SDS011;17254;50.976;7.034;2023-03-30T00:17:58;7.46;;;3.61;;
30458;SDS011;17254;50.976;7.034;2023-03-30T00:18:05;7.50;;;3.50;;
30458;SDS011;17254;50.976;7.034;2023-03-30T00:18:11;7.30;;;3.50;;
30458;SDS011;17254;50.976;7.034;2023-03-30T00:18:18;7.12;;;3.60;;
30458;SDS011;17254;50.976;7.034;2023-03-30T00:18:25;7.46;;;3.54;;
30458;SDS011;17254;50.976;7.034;2023-03-30T00:18:31;6.85;;;3.47;;
30458;SDS011;17254;50.976;7.034;2023-03-30T00:18:38;6.72;;;3.46;;
30458;SDS011;17254;50.976;7.034;2023-03-30T00:18:44;6.90;;;3.42;;
30458;SDS011;17254;50.976;7.034;2023-03-30T00:18:51;6.74;;;3.34;;
30458;SDS011;17254;50.976;7.034;2023-03-30T00:18:57;7.17;;;3.40;;
30458;SDS011;17254;50.976;7.034;2023-03-30T00:19:03;7.50;;;3.47;;
30458;SDS011;17254;50.976;7.034;2023-03-30T00:19:10;7.86;;;3.50;;
30458;SDS011;17254;50.976;7.034;2023-03-30T00:19:16;9.15;;;3.60;;
30458;SDS011;17254;50.976;7.034;2023-03-30T00:19:22;8.82;;;3.50;;
30458;SDS011;17254;50.976;7.034;2023-03-30T00:19:30;8.60;;;3.47;;
30458;SDS011;17254;50.976;7.034;2023-03-30T00:19:36;8.50;;;3.40;;
30458;SDS011;17254;50.976;7.034;2023-03-30T00:19:42;7.93;;;3.40;;
30458;SDS011;17254;50.976;7.034;2023-03-30T00:19:50;7.58;;;3.30;;
30458;SDS011;17254;50.976;7.034;2023-03-30T00:19:55;7.47;;;3.37;;
30458;SDS011;17254;50.976;7.034;2023-03-30T00:20:01;7.00;;;3.30;;
30458;SDS011;17254;50.976;7.034;2023-03-30T00:20:13;6.80;;;3.32;;
30458;SDS011;17254;50.976;7.034;2023-03-30T00:20:19;6.10;;;3.34;;
30458;SDS011;17254;50.976;7.034;2023-03-30T00:20:26;5.43;;;3.33;;
30458;SDS011;17254;50.976;7.034;2023-03-30T00:20:32;5.67;;;3.30;;
30458;SDS011;17254;50.976;7.034;2023-03-30T00:20:38;5.60;;;3.42;;
30458;SDS011;17254;50.976;7.034;2023-03-30T00:20:47;5.81;;;3.54;;
30458;SDS011;17254;50.976;7.034;2023-03-30T00:20:52;5.72;;;3.67;;
30458;SDS011;17254;50.976;7.034;2023-03-30T00:20:59;6.10;;;3.83;;
30458;SDS011;17254;50.976;7.034;2023-03-30T00:21:06;6.86;;;3.98;;
30458;SDS011;17254;50.976;7.034;2023-03-30T00:21:15;6.07;;;3.80;;
30458;SDS011;17254;50.976;7.034;2023-03-30T00:21:22;6.03;;;3.60;;
30458;SDS011;17254;50.976;7.034;2023-03-30T00:21:28;6.33;;;3.50;;
30458;SDS011;17254;50.976;7.034;2023-03-30T00:21:34;5.50;;;3.22;;
30458;SDS011;17254;50.976;7.034;2023-03-30T00:21:40;5.43;;;3.10;;
30458;SDS011;17254;50.976;7.034;2023-03-30T00:21:46;5.80;;;3.17;;
30458;SDS011;17254;50.976;7.034;2023-03-30T00:21:52;6.38;;;3.22;;
30458;SDS011;17254;50.976;7.034;2023-03-30T00:21:58;6.22;;;3.20;;
30458;SDS011;17254;50.976;7.034;2023-03-30T00:22:04;6.22;;;3.28;;
30458;SDS011;17254;50.976;7.034;2023-03-30T00:22:11;6.38;;;3.60;;
30458;SDS011;17254;50.976;7.034;2023-03-30T00:22:17;6.20;;;3.67;;
30458;SDS011;17254;50.976;7.034;2023-03-30T00:22:23;5.50;;;3.55;;
30458;SDS011;17254;50.976;7.034;2023-03-30T00:22:29;5.13;;;3.43;;
30458;SDS011;17254;50.976;7.034;2023-03-30T00:22:35;4.88;;;3.45;;
30458;SDS011;17254;50.976;7.034;2023-03-30T00:22:41;5.68;;;3.35;;
30458;SDS011;17254;50.976;7.034;2023-03-30T00:22:49;5.95;;;3.23;;
30458;SDS011;17254;50.976;7.034;2023-03-30T00:22:55;6.50;;;3.35;;
30458;SDS011;17254;50.976;7.034;2023-03-30T00:23:01;7.00;;;3.70;;
30458;SDS011;17254;50.976;7.034;2023-03-30T00:23:07;6.55;;;3.55;;
30458;SDS011;17254;50.976;7.034;2023-03-30T00:23:13;5.53;;;3.53;;
30458;SDS011;17254;50.976;7.034;2023-03-30T00:23:19;5.15;;;3.60;;
30458;SDS011;17254;50.976;7.034;2023-03-30T00:23:26;5.48;;;3.64;;
30458;SDS011;17254;50.976;7.034;2023-03-30T00:23:33;6.44;;;3.70;;
30458;SDS011;17254;50.976;7.034;2023-03-30T00:23:38;7.30;;;3.80;;
30458;SDS011;17254;50.976;7.034;2023-03-30T00:23:45;7.82;;;3.64;;
30458;SDS011;17254;50.976;7.034;2023-03-30T00:23:51;8.93;;;3.60;;
30458;SDS011;17254;50.976;7.034;2023-03-30T00:23:57;8.30;;;3.60;;
30458;SDS011;17254;50.976;7.034;2023-03-30T00:24:03;7.63;;;3.55;;
30458;SDS011;17254;50.976;7.034;2023-03-30T00:24:10;6.80;;;3.38;;
30458;SDS011;17254;50.976;7.034;2023-03-30T00:24:16;6.20;;;3.40;;
30458;SDS011;17254;50.976;7.034;2023-03-30T00:24:23;5.72;;;3.44;;
30458;SDS011;17254;50.976;7.034;2023-03-30T00:24:29;6.20;;;3.60;;
30458;SDS011;17254;50.976;7.034;2023-03-30T00:24:35;6.90;;;3.73;;
30458;SDS011;17254;50.976;7.034;2023-03-30T00:24:41;7.95;;;3.83;;
30458;SDS011;17254;50.976;7.034;2023-03-30T00:24:47;7.82;;;3.85;;
30458;SDS011;17254;50.976;7.034;2023-03-30T00:24:53;7.60;;;3.90;;
30458;SDS011;17254;50.976;7.034;2023-03-30T00:24:59;7.30;;;3.67;;
30458;SDS011;17254;50.976;7.034;2023-03-30T00:25:06;6.90;;;3.55;;
30458;SDS011;17254;50.976;7.034;2023-03-30T00:25:14;6.20;;;3.48;;
30458;SDS011;17254;50.976;7.034;2023-03-30T00:25:21;6.37;;;3.50;;
30458;SDS011;17254;50.976;7.034;2023-03-30T00:25:27;5.80;;;3.40;;
30458;SDS011;17254;50.976;7.034;2023-03-30T00:25:34;5.46;;;3.30;;
30458;SDS011;17254;50.976;7.034;2023-03-30T00:25:40;5.55;;;3.35;;
30458;SDS011;17254;50.976;7.034;2023-03-30T00:25:47;5.20;;;3.17;;
30458;SDS011;17254;50.976;7.034;2023-03-30T00:25:53;5.20;;;3.22;;
30458;SDS011;17254;50.976;7.034;2023-03-30T00:25:59;5.30;;;3.50;;
30458;SDS011;17254;50.976;7.034;2023-03-30T00:26:05;5.53;;;3.70;;
30458;SDS011;17254;50.976;7.034;2023-03-30T00:26:11;5.43;;;3.60;;
30458;SDS011;17254;50.976;7.034;2023-03-30T00:26:18;5.57;;;3.50;;
30458;SDS011;17254;50.976;7.034;2023-03-30T00:26:24;5.50;;;3.33;;
30458;SDS011;17254;50.976;7.034;2023-03-30T00:26:31;5.53;;;3.00;;
30458;SDS011;17254;50.976;7.034;2023-03-30T00:26:37;5.57;;;2.95;;
30458;SDS011;17254;50.976;7.034;2023-03-30T00:26:43;5.55;;;3.15;;
30458;SDS011;17254;50.976;7.034;2023-03-30T00:26:49;6.00;;;3.28;;
30458;SDS011;17254;50.976;7.034;2023-03-30T00:26:55;5.93;;;3.40;;
30458;SDS011;17254;50.976;7.034;2023-03-30T00:27:01;6.00;;;3.47;;
30458;SDS011;17254;50.976;7.034;2023-03-30T00:27:08;6.30;;;3.50;;
30458;SDS011;17254;50.976;7.034;2023-03-30T00:27:14;5.90;;;3.45;;
30458;SDS011;17254;50.976;7.034;2023-03-30T00:27:21;5.37;;;3.43;;
30458;SDS011;17254;50.976;7.034;2023-03-30T00:27:27;5.70;;;3.42;;
30458;SDS011;17254;50.976;7.034;2023-03-30T00:27:33;5.63;;;3.47;;
30458;SDS011;17254;50.976;7.034;2023-03-30T00:27:39;5.38;;;3.40;;
30458;SDS011;17254;50.976;7.034;2023-03-30T00:27:45;6.10;;;3.50;;
30458;SDS011;17254;50.976;7.034;2023-03-30T00:27:52;6.13;;;3.53;;
30458;SDS011;17254;50.976;7.034;2023-03-30T00:27:58;5.88;;;3.35;;
30458;SDS011;17254;50.976;7.034;2023-03-30T00:28:04;5.38;;;3.22;;
30458;SDS011;17254;50.976;7.034;2023-03-30T00:28:09;5.63;;;3.28;;
30458;SDS011;17254;50.976;7.034;2023-03-30T00:28:15;5.13;;;3.25;;
30458;SDS011;17254;50.976;7.034;2023-03-30T00:28:23;5.54;;;3.30;;
30458;SDS011;17254;50.976;7.034;2023-03-30T00:28:30;5.40;;;3.50;;
30458;SDS011;17254;50.976;7.034;2023-03-30T00:28:36;5.52;;;3.52;;
30458;SDS011;17254;50.976;7.034;2023-03-30T00:28:43;5.72;;;3.58;;
30458;SDS011;17254;50.976;7.034;2023-03-30T00:28:49;5.63;;;3.50;;
30458;SDS011;17254;50.976;7.034;2023-03-30T00:28:55;5.43;;;3.50;;
30458;SDS011;17254;50.976;7.034;2023-03-30T00:29:01;6.57;;;3.72;;
30458;SDS011;17254;50.976;7.034;2023-03-30T00:29:07;6.72;;;3.67;;
30458;SDS011;17254;50.976;7.034;2023-03-30T00:29:12;6.73;;;3.67;;
30458;SDS011;17254;50.976;7.034;2023-03-30T00:29:18;7.10;;;3.65;;
30458;SDS011;17254;50.976;7.034;2023-03-30T00:29:27;7.37;;;3.42;;
30458;SDS011;17254;50.976;7.034;2023-03-30T00:29:33;6.47;;;3.13;;
30458;SDS011;17254;50.976;7.034;2023-03-30T00:29:40;6.22;;;2.98;;
30458;SDS011;17254;50.976;7.034;2023-03-30T00:29:46;5.90;;;2.90;;
30458;SDS011;17254;50.976;7.034;2023-03-30T00:29:52;5.57;;;2.92;;
30458;SDS011;17254;50.976;7.034;2023-03-30T00:29:58;5.17;;;2.93;;
30458;SDS011;17254;50.976;7.034;2023-03-30T00:30:05;5.30;;;2.96;;
30458;SDS011;17254;50.976;7.034;2023-03-30T00:30:13;5.67;;;3.00;;
30458;SDS011;17254;50.976;7.034;2023-03-30T00:30:20;5.55;;;3.03;;
30458;SDS011;17254;50.976;7.034;2023-03-30T00:30:27;6.20;;;3.10;;
30458;SDS011;17254;50.976;7.034;2023-03-30T00:30:33;6.43;;;3.17;;
30458;SDS011;17254;50.976;7.034;2023-03-30T00:30:39;6.70;;;3.30;;
30458;SDS011;17254;50.976;7.034;2023-03-30T00:30:46;7.62;;;3.50;;
30458;SDS011;17254;50.976;7.034;2023-03-30T00:30:52;7.80;;;3.40;;
30458;SDS011;17254;50.976;7.034;2023-03-30T00:30:58;8.13;;;3.37;;
30458;SDS011;17254;50.976;7.034;2023-03-30T00:31:04;7.93;;;3.33;;
30458;SDS011;17254;50.976;7.034;2023-03-30T00:31:10;7.40;;;3.50;;
30458;SDS011;17254;50.976;7.034;2023-03-30T00:31:19;6.60;;;3.37;;
30458;SDS011;17254;50.976;7.034;2023-03-30T00:31:25;6.07;;;3.53;;
30458;SDS011;17254;50.976;7.034;2023-03-30T00:31:31;5.95;;;3.53;;
30458;SDS011;17254;50.976;7.034;2023-03-30T00:31:37;5.93;;;3.40;;
30458;SDS011;17254;50.976;7.034;2023-03-30T00:31:43;6.05;;;3.33;;
30458;SDS011;17254;50.976;7.034;2023-03-30T00:31:49;6.13;;;3.50;;
30458;SDS011;17254;50.976;7.034;2023-03-30T00:31:55;6.07;;;3.47;;
30458;SDS011;17254;50.976;7.034;2023-03-30T00:32:02;6.10;;;3.53;;
30458;SDS011;17254;50.976;7.034;2023-03-30T00:32:08;7.22;;;3.67;;
30458;SDS011;17254;50.976;7.034;2023-03-30T00:32:14;6.57;;;3.53;;
30458;SDS011;17254;50.976;7.034;2023-03-30T00:32:22;6.10;;;3.32;;
30458;SDS011;17254;50.976;7.034;2023-03-30T00:32:28;5.88;;;3.15;;
30458;SDS011;17254;50.976;7.034;2023-03-30T00:32:34;4.47;;;3.03;;
30458;SDS011;17254;50.976;7.034;2023-03-30T00:32:41;4.90;;;3.00;;
30458;SDS011;17254;50.976;7.034;2023-03-30T00:32:47;5.13;;;3.00;;
30458;SDS011;17254;50.976;7.034;2023-03-30T00:32:54;5.33;;;3.17;;
30458;SDS011;17254;50.976;7.034;2023-03-30T00:33:00;5.20;;;3.20;;
30458;SDS011;17254;50.976;7.034;2023-03-30T00:33:06;5.70;;;3.30;;
30458;SDS011;17254;50.976;7.034;2023-03-30T00:33:12;5.67;;;3.43;;
30458;SDS011;17254;50.976;7.034;2023-03-30T00:33:18;5.90;;;3.70;;
30458;SDS011;17254;50.976;7.034;2023-03-30T00:33:24;6.43;;;3.60;;
30458;SDS011;17254;50.976;7.034;2023-03-30T00:33:30;6.60;;;3.60;;
30458;SDS011;17254;50.976;7.034;2023-03-30T00:33:36;6.57;;;3.65;;
30458;SDS011;17254;50.976;7.034;2023-03-30T00:33:42;6.30;;;3.53;;
30458;SDS011;17254;50.976;7.034;2023-03-30T00:33:48;6.15;;;3.30;;
30458;SDS011;17254;50.976;7.034;2023-03-30T00:33:54;5.78;;;3.40;;
30458;SDS011;17254;50.976;7.034;2023-03-30T00:34:00;5.63;;;3.42;;
30458;SDS011;17254;50.976;7.034;2023-03-30T00:34:06;5.65;;;3.25;;
30458;SDS011;17254;50.976;7.034;2023-03-30T00:34:14;5.67;;;3.20;;
30458;SDS011;17254;50.976;7.034;2023-03-30T00:34:20;5.97;;;3.10;;
30458;SDS011;17254;50.976;7.034;2023-03-30T00:34:28;6.17;;;3.17;;
30458;SDS011;17254;50.976;7.034;2023-03-30T00:34:34;5.93;;;3.20;;
30458;SDS011;17254;50.976;7.034;2023-03-30T00:34:40;6.37;;;3.30;;
30458;SDS011;17254;50.976;7.034;2023-03-30T00:34:46;5.97;;;3.40;;
30458;SDS011;17254;50.976;7.034;2023-03-30T00:34:52;6.50;;;3.33;;
30458;SDS011;17254;50.976;7.034;2023-03-30T00:34:58;6.53;;;3.22;;
30458;SDS011;17254;50.976;7.034;2023-03-30T00:35:05;6.86;;;3.30;;
30458;SDS011;17254;50.976;7.034;2023-03-30T00:35:12;6.70;;;3.34;;
30458;SDS011;17254;50.976;7.034;2023-03-30T00:35:20;6.37;;;3.30;;
30458;SDS011;17254;50.976;7.034;2023-03-30T00:35:26;5.80;;;3.30;;
30458;SDS011;17254;50.976;7.034;2023-03-30T00:35:34;5.89;;;3.27;;
30458;SDS011;17254;50.976;7.034;2023-03-30T00:35:40;6.47;;;3.30;;
30458;SDS011;17254;50.976;7.034;2023-03-30T00:35:50;6.70;;;3.13;;
30458;SDS011;17254;50.976;7.034;2023-03-30T00:35:57;7.40;;;3.33;;
30458;SDS011;17254;50.976;7.034;2023-03-30T00:36:04;7.70;;;3.40;;
30458;SDS011;17254;50.976;7.034;2023-03-30T00:36:10;6.70;;;3.20;;
30458;SDS011;17254;50.976;7.034;2023-03-30T00:36:16;6.65;;;3.38;;
30458;SDS011;17254;50.976;7.034;2023-03-30T00:36:22;7.00;;;3.56;;
30458;SDS011;17254;50.976;7.034;2023-03-30T00:36:29;6.38;;;3.60;;
30458;SDS011;17254;50.976;7.034;2023-03-30T00:36:34;6.07;;;3.50;;
30458;SDS011;17254;50.976;7.034;2023-03-30T00:36:41;6.03;;;3.60;;
30458;SDS011;17254;50.976;7.034;2023-03-30T00:36:50;6.47;;;3.37;;
30458;SDS011;17254;50.976;7.034;2023-03-30T00:36:57;6.70;;;3.50;;
30458;SDS011;17254;50.976;7.034;2023-03-30T00:37:03;6.82;;;3.53;;
30458;SDS011;17254;50.976;7.034;2023-03-30T00:37:09;6.88;;;3.63;;
30458;SDS011;17254;50.976;7.034;2023-03-30T00:37:16;6.95;;;3.65;;
30458;SDS011;17254;50.976;7.034;2023-03-30T00:37:22;6.20;;;3.80;;
30458;SDS011;17254;50.976;7.034;2023-03-30T00:37:29;6.17;;;3.60;;
30458;SDS011;17254;50.976;7.034;2023-03-30T00:37:36;5.93;;;3.37;;
30458;SDS011;17254;50.976;7.034;2023-03-30T00:37:43;5.78;;;3.33;;
30458;SDS011;17254;50.976;7.034;2023-03-30T00:37:53;5.90;;;3.23;;
30458;SDS011;17254;50.976;7.034;2023-03-30T00:37:59;5.80;;;3.55;;
30458;SDS011;17254;50.976;7.034;2023-03-30T00:38:07;6.13;;;3.77;;
30458;SDS011;17254;50.976;7.034;2023-03-30T00:38:14;6.78;;;4.02;;
30458;SDS011;17254;50.976;7.034;2023-03-30T00:38:20;6.90;;;4.10;;
30458;SDS011;17254;50.976;7.034;2023-03-30T00:38:26;7.30;;;3.80;;
30458;SDS011;17254;50.976;7.034;2023-03-30T00:38:32;7.60;;;3.72;;
30458;SDS011;17254;50.976;7.034;2023-03-30T00:38:38;8.13;;;3.55;;
30458;SDS011;17254;50.976;7.034;2023-03-30T00:38:44;7.60;;;3.43;;
30458;SDS011;17254;50.976;7.034;2023-03-30T00:38:52;7.40;;;3.50;;
30458;SDS011;17254;50.976;7.034;2023-03-30T00:38:58;6.47;;;3.50;;
30458;SDS011;17254;50.976;7.034;2023-03-30T00:39:06;6.03;;;3.60;;
30458;SDS011;17254;50.976;7.034;2023-03-30T00:39:12;5.72;;;3.84;;
30458;SDS011;17254;50.976;7.034;2023-03-30T00:39:19;5.93;;;3.80;;
30458;SDS011;17254;50.976;7.034;2023-03-30T00:39:26;6.82;;;3.90;;
30458;SDS011;17254;50.976;7.034;2023-03-30T00:39:32;7.05;;;3.90;;
30458;SDS011;17254;50.976;7.034;2023-03-30T00:39:39;7.13;;;3.80;;
30458;SDS011;17254;50.976;7.034;2023-03-30T00:39:45;7.05;;;3.95;;
30458;SDS011;17254;50.976;7.034;2023-03-30T00:39:51;7.43;;;4.00;;
30458;SDS011;17254;50.976;7.034;2023-03-30T00:39:58;7.37;;;3.97;;
30458;SDS011;17254;50.976;7.034;2023-03-30T00:40:04;7.18;;;3.90;;
30458;SDS011;17254;50.976;7.034;2023-03-30T00:40:13;7.77;;;3.83;;
30458;SDS011;17254;50.976;7.034;2023-03-30T00:40:21;7.37;;;3.59;;
30458;SDS011;17254;50.976;7.034;2023-03-30T00:40:28;7.28;;;3.60;;
30458;SDS011;17254;50.976;7.034;2023-03-30T00:40:35;7.42;;;3.60;;
30458;SDS011;17254;50.976;7.034;2023-03-30T00:40:49;6.72;;;3.56;;
30458;SDS011;17254;50.976;7.034;2023-03-30T00:40:56;5.99;;;3.45;;
30458;SDS011;17254;50.976;7.034;2023-03-30T00:41:03;5.23;;;3.37;;
30458;SDS011;17254;50.976;7.034;2023-03-30T00:41:11;5.28;;;3.20;;